sensor_id;sensor_type;location;lat;lon;timestamp;temperature;humidity
50690;DHT22;54375;48.298;11.238;2023-04-03T00:08:19;2.20;90.20
50690;DHT22;54375;48.298;11.238;2023-04-03T00:23:24;2.10;89.20
50690;DHT22;54375;48.298;11.238;2023-04-03T00:38:26;2.10;88.60
50690;DHT22;54375;48.298;11.238;2023-04-03T00:53:33;2.00;87.50
50690;DHT22;54375;48.298;11.238;2023-04-03T01:08:37;1.90;88.40
50690;DHT22;54375;48.298;11.238;2023-04-03T01:23:57;1.90;89.30
50690;DHT22;54375;48.298;11.238;2023-04-03T01:39:02;1.90;90.00
50690;DHT22;54375;48.298;11.238;2023-04-03T01:54:04;1.90;90.10
50690;DHT22;54375;48.298;11.238;2023-04-03T02:09:07;1.90;90.20
50690;DHT22;54375;48.298;11.238;2023-04-03T02:24:12;1.80;90.40
50690;DHT22;54375;48.298;11.238;2023-04-03T02:39:14;1.80;90.50
50690;DHT22;54375;48.298;11.238;2023-04-03T02:54:16;1.90;90.00
50690;DHT22;54375;48.298;11.238;2023-04-03T03:09:19;1.80;90.30
50690;DHT22;54375;48.298;11.238;2023-04-03T03:24:21;1.70;90.30
50690;DHT22;54375;48.298;11.238;2023-04-03T03:39:23;1.60;90.40
50690;DHT22;54375;48.298;11.238;2023-04-03T03:54:25;1.70;90.60
50690;DHT22;54375;48.298;11.238;2023-04-03T04:09:28;1.70;90.70
50690;DHT22;54375;48.298;11.238;2023-04-03T04:24:30;1.70;90.50
50690;DHT22;54375;48.298;11.238;2023-04-03T04:39:33;1.70;90.80
50690;DHT22;54375;48.298;11.238;2023-04-03T04:54:36;1.60;91.00
50690;DHT22;54375;48.298;11.238;2023-04-03T05:09:38;1.60;91.20
50690;DHT22;54375;48.298;11.238;2023-04-03T05:24:41;1.50;91.10
50690;DHT22;54375;48.298;11.238;2023-04-03T05:39:43;1.70;91.00
50690;DHT22;54375;48.298;11.238;2023-04-03T05:54:45;1.70;90.80
50690;DHT22;54375;48.298;11.238;2023-04-03T06:09:48;1.70;90.60
50690;DHT22;54375;48.298;11.238;2023-04-03T06:24:50;1.80;90.70
50690;DHT22;54375;48.298;11.238;2023-04-03T06:39:52;1.90;90.50
50690;DHT22;54375;48.298;11.238;2023-04-03T06:54:55;2.10;90.40
50690;DHT22;54375;48.298;11.238;2023-04-03T07:09:57;2.30;90.30
50690;DHT22;54375;48.298;11.238;2023-04-03T07:25:00;2.50;89.20
50690;DHT22;54375;48.298;11.238;2023-04-03T07:40:02;2.70;88.40
50690;DHT22;54375;48.298;11.238;2023-04-03T07:55:05;2.80;88.30
50690;DHT22;54375;48.298;11.238;2023-04-03T08:10:08;2.90;86.30
50690;DHT22;54375;48.298;11.238;2023-04-03T08:25:11;3.20;85.70
50690;DHT22;54375;48.298;11.238;2023-04-03T08:40:15;3.50;84.10
50690;DHT22;54375;48.298;11.238;2023-04-03T08:55:23;4.00;82.50
50690;DHT22;54375;48.298;11.238;2023-04-03T09:10:28;4.50;78.90
50690;DHT22;54375;48.298;11.238;2023-04-03T09:25:32;4.90;78.00
50690;DHT22;54375;48.298;11.238;2023-04-03T09:40:37;4.70;75.80
50690;DHT22;54375;48.298;11.238;2023-04-03T09:55:43;4.80;74.60
50690;DHT22;54375;48.298;11.238;2023-04-03T10:10:48;5.20;75.70
50690;DHT22;54375;48.298;11.238;2023-04-03T10:25:59;4.80;76.30
50690;DHT22;54375;48.298;11.238;2023-04-03T10:41:07;4.60;74.90
50690;DHT22;54375;48.298;11.238;2023-04-03T10:56:18;4.90;76.40
50690;DHT22;54375;48.298;11.238;2023-04-03T11:11:26;4.90;73.70
50690;DHT22;54375;48.298;11.238;2023-04-03T11:26:31;5.80;71.10
50690;DHT22;54375;48.298;11.238;2023-04-03T11:41:37;6.20;64.10
50690;DHT22;54375;48.298;11.238;2023-04-03T11:56:40;5.90;66.70
50690;DHT22;54375;48.298;11.238;2023-04-03T12:11:43;6.00;66.40
50690;DHT22;54375;48.298;11.238;2023-04-03T12:26:47;6.00;64.30
50690;DHT22;54375;48.298;11.238;2023-04-03T12:41:56;5.90;64.40
50690;DHT22;54375;48.298;11.238;2023-04-03T12:57:18;6.50;63.60
50690;DHT22;54375;48.298;11.238;2023-04-03T13:12:20;9.10;55.30
50690;DHT22;54375;48.298;11.238;2023-04-03T13:27:23;7.30;50.40
50690;DHT22;54375;48.298;11.238;2023-04-03T13:42:27;7.00;55.20
50690;DHT22;54375;48.298;11.238;2023-04-03T13:57:29;5.60;56.60
50690;DHT22;54375;48.298;11.238;2023-04-03T14:12:34;5.90;55.10
50690;DHT22;54375;48.298;11.238;2023-04-03T14:27:38;6.40;51.50
50690;DHT22;54375;48.298;11.238;2023-04-03T14:42:41;6.10;51.20
50690;DHT22;54375;48.298;11.238;2023-04-03T14:57:43;6.80;48.20
50690;DHT22;54375;48.298;11.238;2023-04-03T15:12:47;7.90;46.10
50690;DHT22;54375;48.298;11.238;2023-04-03T15:27:49;6.90;47.70
50690;DHT22;54375;48.298;11.238;2023-04-03T15:42:51;7.40;44.60
50690;DHT22;54375;48.298;11.238;2023-04-03T15:57:55;8.20;42.70
50690;DHT22;54375;48.298;11.238;2023-04-03T16:12:57;8.00;44.70
50690;DHT22;54375;48.298;11.238;2023-04-03T16:27:59;8.30;43.90
50690;DHT22;54375;48.298;11.238;2023-04-03T16:43:02;7.90;44.20
50690;DHT22;54375;48.298;11.238;2023-04-03T16:58:04;6.10;47.50
50690;DHT22;54375;48.298;11.238;2023-04-03T17:13:06;5.50;48.40
50690;DHT22;54375;48.298;11.238;2023-04-03T17:28:08;5.00;49.10
50690;DHT22;54375;48.298;11.238;2023-04-03T17:43:11;4.30;50.30
50690;DHT22;54375;48.298;11.238;2023-04-03T17:58:14;3.50;53.50
50690;DHT22;54375;48.298;11.238;2023-04-03T18:13:16;2.90;56.60
50690;DHT22;54375;48.298;11.238;2023-04-03T18:28:19;2.40;58.40
50690;DHT22;54375;48.298;11.238;2023-04-03T18:43:21;2.10;60.00
50690;DHT22;54375;48.298;11.238;2023-04-03T18:58:24;1.70;60.90
50690;DHT22;54375;48.298;11.238;2023-04-03T19:13:26;1.50;63.30
50690;DHT22;54375;48.298;11.238;2023-04-03T19:28:29;1.20;64.70
50690;DHT22;54375;48.298;11.238;2023-04-03T19:43:31;1.00;67.00
50690;DHT22;54375;48.298;11.238;2023-04-03T19:58:33;0.80;68.30
50690;DHT22;54375;48.298;11.238;2023-04-03T20:13:36;0.50;69.20
50690;DHT22;54375;48.298;11.238;2023-04-03T20:28:38;0.30;70.80
50690;DHT22;54375;48.298;11.238;2023-04-03T20:43:41;0.00;71.70
50690;DHT22;54375;48.298;11.238;2023-04-03T20:58:43;-0.20;71.70
50690;DHT22;54375;48.298;11.238;2023-04-03T21:29:24;-0.60;72.90
50690;DHT22;54375;48.298;11.238;2023-04-03T21:44:26;-0.90;73.90
50690;DHT22;54375;48.298;11.238;2023-04-03T21:59:28;-1.00;74.50
50690;DHT22;54375;48.298;11.238;2023-04-03T22:14:30;-1.10;75.20
50690;DHT22;54375;48.298;11.238;2023-04-03T22:29:33;-1.20;76.00
50690;DHT22;54375;48.298;11.238;2023-04-03T22:44:35;-1.20;76.10
50690;DHT22;54375;48.298;11.238;2023-04-03T22:59:37;-1.40;76.30
50690;DHT22;54375;48.298;11.238;2023-04-03T23:14:40;-1.40;76.70
50690;DHT22;54375;48.298;11.238;2023-04-03T23:29:42;-1.60;77.60
50690;DHT22;54375;48.298;11.238;2023-04-03T23:44:44;-1.90;79.30
50690;DHT22;54375;48.298;11.238;2023-04-03T23:59:47;-2.00;80.40
